Time;durP1;ratioP1;P1;durP2;ratioP2;P2;SDS_P1;SDS_P2;PMS_P1;PMS_P2;Temp;Humidity;BMP_temperature;BMP_pressure;BME280_temperature;BME280_humidity;BME280_pressure;Samples;Min_cycle;Max_cycle;Signal;HPM_P1;HPM_P2
2022/05/10 00:01:08;;;;;;;;;;;11.80;94.10;;;;;;2622358;46;19939;31
2022/05/10 00:03:44;;;;;;;;;;;11.80;94.20;;;;;;2603819;54;20013;31
2022/05/10 00:06:22;;;;;;;;;;;11.70;94.20;;;;;;2702639;39;20366;31
2022/05/10 00:09:00;;;;;;;;;;;11.70;94.30;;;;;;2603833;54;20751;31
2022/05/10 00:11:36;;;;;;;;;;;11.70;94.30;;;;;;2622523;46;19941;31
2022/05/10 00:14:09;;;;;;;;;;;11.60;94.40;;;;;;2702761;39;22224;31
2022/05/10 00:16:45;;;;;;;;;;;11.60;94.60;;;;;;2603986;54;19942;31
2022/05/10 00:19:19;;;;;;;;;;;11.50;94.80;;;;;;2622604;46;19934;31
2022/05/10 00:21:57;;;;;;;;;;;11.50;94.80;;;;;;2620999;46;20632;31
2022/05/10 00:24:32;;;;;;;;;;;11.40;95.30;;;;;;2603905;54;20801;31
2022/05/10 00:27:06;;;;;;;;;;;11.30;95.40;;;;;;2622339;46;19934;31
2022/05/10 00:29:42;;;;;;;;;;;11.20;95.70;;;;;;2622438;46;20769;31
2022/05/10 00:32:19;;;;;;;;;;;11.10;96.00;;;;;;2603817;54;19934;31
2022/05/10 00:34:55;;;;;;;;;;;11.10;96.20;;;;;;2622520;46;19950;31
2022/05/10 00:37:36;;;;;;;;;;;11.00;96.30;;;;;;2619888;46;20765;31
2022/05/10 00:40:13;;;;;;;;;;;11.00;96.20;;;;;;2609565;46;19935;31
2022/05/10 00:42:50;;;;;;;;;;;10.90;96.60;;;;;;2603866;54;20750;31
2022/05/10 00:45:28;;;;;;;;;;;10.90;96.80;;;;;;2602967;54;20791;31
2022/05/10 00:48:05;;;;;;;;;;;10.80;97.00;;;;;;2603680;54;20773;31
2022/05/10 00:50:39;;;;;;;;;;;10.80;97.00;;;;;;2702089;39;20497;31
2022/05/10 00:53:18;;;;;;;;;;;10.70;97.40;;;;;;2622367;46;20774;31
2022/05/10 00:55:53;;;;;;;;;;;10.70;97.50;;;;;;2603793;54;20761;31
2022/05/10 00:58:29;;;;;;;;;;;10.70;97.50;;;;;;2603843;54;20505;31
2022/05/10 01:01:04;;;;;;;;;;;10.70;97.80;;;;;;2603812;54;19989;31
2022/05/10 01:03:38;;;;;;;;;;;10.60;98.00;;;;;;2702284;39;20942;31
2022/05/10 01:06:19;;;;;;;;;;;10.60;97.80;;;;;;2720648;39;20451;31
2022/05/10 01:08:53;;;;;;;;;;;10.60;97.90;;;;;;2622269;46;19934;31
2022/05/10 01:11:31;;;;;;;;;;;10.50;98.10;;;;;;2603783;54;19935;31
2022/05/10 01:14:07;;;;;;;;;;;10.50;98.00;;;;;;2603327;54;20793;31
2022/05/10 01:16:41;;;;;;;;;;;10.50;98.20;;;;;;2603617;54;19934;31
2022/05/10 01:19:15;;;;;;;;;;;10.50;98.30;;;;;;2702006;39;20382;31
2022/05/10 01:21:53;;;;;;;;;;;10.40;98.40;;;;;;2621890;46;19950;31
2022/05/10 01:24:43;;;;;;;;;;;10.30;98.50;;;;;;2602723;54;19951;31
2022/05/10 01:27:24;;;;;;;;;;;10.30;98.70;;;;;;2603531;54;19934;31
2022/05/10 01:30:03;;;;;;;;;;;10.30;99.20;;;;;;2603503;54;19989;31
2022/05/10 01:35:26;;;;;;;;;;;10.20;99.60;;;;;;2622105;46;19941;31
2022/05/10 01:38:01;;;;;;;;;;;10.20;99.50;;;;;;2702103;39;20974;31
2022/05/10 01:40:38;;;;;;;;;;;10.10;99.80;;;;;;2603362;54;19934;31
2022/05/10 01:43:13;;;;;;;;;;;10.10;99.90;;;;;;2701819;39;20390;31
2022/05/10 01:45:50;;;;;;;;;;;10.00;99.90;;;;;;2701876;39;20463;31
2022/05/10 01:48:25;;;;;;;;;;;10.00;99.90;;;;;;2603340;54;20734;31
2022/05/10 01:51:01;;;;;;;;;;;9.90;99.90;;;;;;2622302;47;20739;31
2022/05/10 01:53:37;;;;;;;;;;;9.90;99.90;;;;;;2622304;47;19966;31
2022/05/10 01:56:12;;;;;;;;;;;9.80;99.90;;;;;;2702085;39;20958;31
2022/05/10 01:58:47;;;;;;;;;;;9.80;99.90;;;;;;2603536;54;19942;31
2022/05/10 02:01:27;;;;;;;;;;;9.70;99.90;;;;;;2603713;54;19934;31
2022/05/10 02:04:02;;;;;;;;;;;9.70;99.90;;;;;;2603417;54;20789;31
2022/05/10 02:06:41;;;;;;;;;;;9.60;99.90;;;;;;2720146;39;20324;31
2022/05/10 02:09:18;;;;;;;;;;;9.60;99.90;;;;;;2603488;54;19941;31
2022/05/10 02:11:52;;;;;;;;;;;9.50;99.90;;;;;;2622439;47;19934;31
2022/05/10 02:14:28;;;;;;;;;;;9.50;99.90;;;;;;2702248;39;21178;31
2022/05/10 02:17:07;;;;;;;;;;;9.50;99.90;;;;;;2623154;46;20744;31
2022/05/10 02:19:46;;;;;;;;;;;9.40;99.90;;;;;;2604154;54;19941;31
2022/05/10 02:22:23;;;;;;;;;;;9.40;99.90;;;;;;2721130;39;21402;31
2022/05/10 02:24:58;;;;;;;;;;;9.40;99.90;;;;;;2604186;54;19941;31
2022/05/10 02:27:35;;;;;;;;;;;9.40;99.90;;;;;;2622721;46;19942;31
2022/05/10 02:30:11;;;;;;;;;;;9.40;99.90;;;;;;2622682;46;19935;31
2022/05/10 02:35:41;;;;;;;;;;;9.30;99.90;;;;;;2604238;54;20540;31
2022/05/10 02:38:18;;;;;;;;;;;9.70;99.90;;;;;;2604129;54;19935;31
2022/05/10 02:40:55;;;;;;;;;;;9.30;99.90;;;;;;2616642;46;19985;31
2022/05/10 02:43:30;;;;;;;;;;;9.30;99.90;;;;;;2622817;46;19955;31
2022/05/10 02:46:05;;;;;;;;;;;9.30;99.90;;;;;;2622572;46;20679;31
2022/05/10 02:48:51;;;;;;;;;;;9.20;99.90;;;;;;2618852;46;20006;31
2022/05/10 02:51:25;;;;;;;;;;;9.20;99.90;;;;;;2622368;46;19982;31
2022/05/10 02:54:00;;;;;;;;;;;9.20;99.90;;;;;;2604023;54;19962;31
2022/05/10 02:56:35;;;;;;;;;;;9.20;99.90;;;;;;2622397;46;19934;31
2022/05/10 02:59:11;;;;;;;;;;;9.50;99.90;;;;;;2604247;54;19941;31
2022/05/10 03:01:47;;;;;;;;;;;9.10;99.90;;;;;;2603850;54;20678;31
2022/05/10 03:04:39;;;;;;;;;;;9.00;99.90;;;;;;2622546;46;19954;31
2022/05/10 03:07:13;;;;;;;;;;;9.00;99.90;;;;;;2702579;39;21217;31
2022/05/10 03:09:50;;;;;;;;;;;8.90;99.90;;;;;;2604135;54;19942;31
2022/05/10 03:12:26;;;;;;;;;;;8.90;99.90;;;;;;2702527;39;20405;31
2022/05/10 03:15:08;;;;;;;;;;;9.30;99.90;;;;;;2604000;54;19961;31
2022/05/10 03:17:40;;;;;;;;;;;8.90;99.90;;;;;;2702689;39;20903;31
2022/05/10 03:20:18;;;;;;;;;;;8.80;99.90;;;;;;2604036;54;19941;31
2022/05/10 03:22:57;;;;;;;;;;;8.80;99.90;;;;;;2603636;54;20450;31
2022/05/10 03:25:32;;;;;;;;;;;8.90;99.90;;;;;;2622397;46;19942;31
2022/05/10 03:28:06;;;;;;;;;;;8.80;99.90;;;;;;2603965;54;19947;31
2022/05/10 03:30:40;;;;;;;;;;;8.90;99.90;;;;;;2603913;54;19947;31
2022/05/10 03:33:15;;;;;;;;;;;8.80;99.90;;;;;;2603914;54;19935;31
2022/05/10 03:35:53;;;;;;;;;;;8.80;99.90;;;;;;2721290;39;20379;31
2022/05/10 03:38:29;;;;;;;;;;;9.20;99.90;;;;;;2622494;46;20473;31
2022/05/10 03:41:04;;;;;;;;;;;8.90;99.90;;;;;;2622626;46;19941;31
2022/05/10 03:43:39;;;;;;;;;;;8.90;99.90;;;;;;2603853;54;19934;31
2022/05/10 03:46:15;;;;;;;;;;;9.00;99.90;;;;;;2603942;54;19990;31
2022/05/10 03:48:51;;;;;;;;;;;9.10;99.90;;;;;;2603761;54;19935;31
2022/05/10 03:51:28;;;;;;;;;;;9.20;99.90;;;;;;2603902;54;20478;31
2022/05/10 03:54:03;;;;;;;;;;;9.30;99.90;;;;;;2622447;46;19962;31
2022/05/10 03:56:38;;;;;;;;;;;9.40;99.90;;;;;;2622221;46;19942;31
2022/05/10 03:59:12;;;;;;;;;;;9.60;99.90;;;;;;2604060;54;20516;31
2022/05/10 04:01:47;;;;;;;;;;;9.60;99.90;;;;;;2603724;54;20785;31
2022/05/10 04:04:26;;;;;;;;;;;9.80;99.90;;;;;;2603936;54;19935;31
2022/05/10 04:07:03;;;;;;;;;;;9.90;99.90;;;;;;2603103;54;19943;31
2022/05/10 04:09:38;;;;;;;;;;;10.00;99.90;;;;;;2603832;54;20762;31
2022/05/10 04:12:13;;;;;;;;;;;10.20;99.90;;;;;;2603663;54;19961;31
2022/05/10 04:14:49;;;;;;;;;;;10.30;99.90;;;;;;2701579;39;20467;31
2022/05/10 04:17:25;;;;;;;;;;;10.50;99.90;;;;;;2603921;54;19961;31
2022/05/10 04:19:58;;;;;;;;;;;10.70;99.90;;;;;;2702500;39;21019;31
2022/05/10 04:22:39;;;;;;;;;;;10.80;99.90;;;;;;2603648;54;20812;31
2022/05/10 04:25:23;;;;;;;;;;;11.00;99.90;;;;;;2603877;54;19941;31
2022/05/10 04:27:59;;;;;;;;;;;11.20;99.90;;;;;;2622287;46;20827;31
2022/05/10 04:30:32;;;;;;;;;;;11.30;99.90;;;;;;2603588;54;20784;31
2022/05/10 04:33:06;;;;;;;;;;;11.50;99.90;;;;;;2622416;46;19950;31
2022/05/10 04:35:42;;;;;;;;;;;11.70;99.90;;;;;;2622459;46;20086;31
2022/05/10 04:38:21;;;;;;;;;;;11.90;99.90;;;;;;2622404;46;20774;31
2022/05/10 04:43:44;;;;;;;;;;;12.30;99.90;;;;;;2622291;46;20560;31
2022/05/10 04:46:19;;;;;;;;;;;12.50;99.90;;;;;;2622236;46;19934;31
2022/05/10 04:48:54;;;;;;;;;;;12.70;99.90;;;;;;2603665;54;20548;31
2022/05/10 04:51:30;;;;;;;;;;;12.80;99.90;;;;;;2603624;54;19934;31
2022/05/10 04:54:07;;;;;;;;;;;13.00;99.90;;;;;;2702096;39;20453;31
2022/05/10 04:56:41;;;;;;;;;;;13.30;99.90;;;;;;2603601;54;20485;31
2022/05/10 04:59:18;;;;;;;;;;;13.50;99.90;;;;;;2603549;54;19934;31
2022/05/10 05:01:53;;;;;;;;;;;13.80;99.90;;;;;;2622224;46;19941;31
2022/05/10 05:04:32;;;;;;;;;;;14.00;99.90;;;;;;2603321;54;20679;31
2022/05/10 05:07:06;;;;;;;;;;;14.30;99.90;;;;;;2602712;54;20805;31
2022/05/10 05:09:43;;;;;;;;;;;14.50;99.90;;;;;;2602860;54;20010;31
2022/05/10 05:12:22;;;;;;;;;;;14.70;99.90;;;;;;2603645;54;20540;31
2022/05/10 05:14:57;;;;;;;;;;;14.80;99.90;;;;;;2622396;46;20472;31
2022/05/10 05:17:31;;;;;;;;;;;15.00;99.90;;;;;;2603823;54;19935;31
2022/05/10 05:20:07;;;;;;;;;;;15.20;99.90;;;;;;2773800;31;20560;31
2022/05/10 05:22:42;;;;;;;;;;;15.30;99.90;;;;;;2622249;46;19941;31
2022/05/10 05:25:18;;;;;;;;;;;15.40;99.90;;;;;;2602802;54;19942;31
2022/05/10 05:27:56;;;;;;;;;;;15.60;99.90;;;;;;2603520;54;19935;31
2022/05/10 05:30:35;;;;;;;;;;;15.70;99.90;;;;;;2622257;46;19945;31
2022/05/10 05:33:10;;;;;;;;;;;15.80;99.90;;;;;;2603357;54;21298;31
2022/05/10 05:35:44;;;;;;;;;;;16.00;99.90;;;;;;2603581;54;19935;31
2022/05/10 05:38:19;;;;;;;;;;;16.00;99.90;;;;;;2603795;54;19935;31
2022/05/10 05:40:54;;;;;;;;;;;16.20;99.90;;;;;;2603398;54;19939;31
2022/05/10 05:43:33;;;;;;;;;;;16.40;99.90;;;;;;2602799;54;20769;31
2022/05/10 05:46:08;;;;;;;;;;;16.60;99.90;;;;;;2701664;39;20414;31
2022/05/10 05:48:46;;;;;;;;;;;16.80;99.60;;;;;;2604486;54;20844;31
2022/05/10 05:51:20;;;;;;;;;;;17.00;99.40;;;;;;2604241;54;19934;31
2022/05/10 05:53:55;;;;;;;;;;;17.10;99.30;;;;;;2623074;46;20492;31
2022/05/10 05:56:29;;;;;;;;;;;17.30;98.90;;;;;;2623240;46;19950;31
2022/05/10 05:59:07;;;;;;;;;;;17.40;98.80;;;;;;2702834;39;20480;31
2022/05/10 06:01:42;;;;;;;;;;;17.60;98.40;;;;;;2622898;46;20572;31
2022/05/10 06:04:15;;;;;;;;;;;17.80;98.20;;;;;;2604400;54;20484;31
2022/05/10 06:06:50;;;;;;;;;;;17.90;97.80;;;;;;2604306;54;20766;31
2022/05/10 06:09:23;;;;;;;;;;;18.10;98.00;;;;;;2604479;54;19943;31
2022/05/10 06:12:00;;;;;;;;;;;18.40;97.20;;;;;;2721241;39;20438;31
2022/05/10 06:14:38;;;;;;;;;;;18.50;96.70;;;;;;2604090;54;19934;31
2022/05/10 06:17:15;;;;;;;;;;;18.60;96.60;;;;;;2603505;54;20765;31
2022/05/10 06:19:51;;;;;;;;;;;18.80;96.10;;;;;;2622815;46;19934;31
2022/05/10 06:22:31;;;;;;;;;;;19.00;96.30;;;;;;2605733;46;19948;31
2022/05/10 06:25:09;;;;;;;;;;;19.20;95.80;;;;;;2622725;46;19942;31
2022/05/10 06:27:44;;;;;;;;;;;19.40;95.60;;;;;;2604383;54;19941;31
2022/05/10 06:30:22;;;;;;;;;;;19.40;95.10;;;;;;2622883;46;20029;31
2022/05/10 06:32:58;;;;;;;;;;;19.50;94.80;;;;;;2603744;54;20751;31
2022/05/10 06:35:32;;;;;;;;;;;19.60;95.30;;;;;;2604499;54;20020;31
2022/05/10 06:40:56;;;;;;;;;;;19.90;94.70;;;;;;2604184;54;19939;31
2022/05/10 06:43:37;;;;;;;;;;;20.10;94.50;;;;;;2603981;54;20839;31
2022/05/10 06:46:21;;;;;;;;;;;20.20;93.70;;;;;;2603994;54;20458;31
2022/05/10 06:48:56;;;;;;;;;;;20.30;93.70;;;;;;2604124;54;19962;31
2022/05/10 06:51:30;;;;;;;;;;;20.50;93.70;;;;;;2604125;54;20744;31
2022/05/10 06:54:06;;;;;;;;;;;20.60;93.40;;;;;;2604100;54;20773;31
2022/05/10 06:56:41;;;;;;;;;;;20.80;93.20;;;;;;2604094;54;19935;31
2022/05/10 06:59:15;;;;;;;;;;;20.90;92.70;;;;;;2622758;46;19993;31
2022/05/10 07:01:53;;;;;;;;;;;21.00;92.90;;;;;;2622588;46;20762;31
2022/05/10 07:04:28;;;;;;;;;;;21.10;92.80;;;;;;2774399;31;20994;31
2022/05/10 07:07:06;;;;;;;;;;;21.30;92.30;;;;;;2622852;46;19934;31
2022/05/10 07:09:41;;;;;;;;;;;21.50;91.90;;;;;;2604063;54;19935;31
2022/05/10 07:12:16;;;;;;;;;;;21.70;92.20;;;;;;2622474;46;19935;31
2022/05/10 07:14:51;;;;;;;;;;;21.90;91.80;;;;;;2603663;54;20774;31
2022/05/10 07:17:30;;;;;;;;;;;22.20;92.10;;;;;;2603684;54;20782;31
2022/05/10 07:20:08;;;;;;;;;;;22.40;91.30;;;;;;2622478;46;19986;31
2022/05/10 07:22:43;;;;;;;;;;;22.50;90.80;;;;;;2603986;54;19934;31
2022/05/10 07:25:20;;;;;;;;;;;22.60;90.80;;;;;;2622561;46;19941;31
2022/05/10 07:27:58;;;;;;;;;;;22.70;90.40;;;;;;2622759;46;20779;31
2022/05/10 07:30:42;;;;;;;;;;;22.90;90.60;;;;;;2604250;54;19941;31
2022/05/10 07:33:27;;;;;;;;;;;23.00;89.40;;;;;;2603775;54;19958;31
2022/05/10 07:38:56;;;;;;;;;;;23.10;89.60;;;;;;2603924;54;19935;31
2022/05/10 07:41:32;;;;;;;;;;;23.30;88.60;;;;;;2603925;54;20890;31
2022/05/10 07:44:30;;;;;;;;;;;23.50;88.90;;;;;;2603712;54;20772;31
2022/05/10 07:47:10;;;;;;;;;;;23.60;87.50;;;;;;2603753;54;20008;31
2022/05/10 07:49:47;;;;;;;;;;;23.70;87.80;;;;;;2622358;46;19935;31
2022/05/10 07:52:22;;;;;;;;;;;23.70;87.40;;;;;;2622527;46;20010;31
2022/05/10 07:54:59;;;;;;;;;;;23.70;87.30;;;;;;2603975;54;19935;31
2022/05/10 07:57:33;;;;;;;;;;;23.80;87.10;;;;;;2603950;54;20768;31
2022/05/10 08:00:08;;;;;;;;;;;24.00;86.50;;;;;;2622571;46;19942;31
2022/05/10 08:02:48;;;;;;;;;;;24.10;86.40;;;;;;2621833;46;19938;31
2022/05/10 08:05:27;;;;;;;;;;;24.30;85.60;;;;;;2603837;54;20798;31
2022/05/10 08:08:12;;;;;;;;;;;24.40;86.00;;;;;;2621688;46;20782;31
2022/05/10 08:10:53;;;;;;;;;;;24.70;84.90;;;;;;2603667;54;19989;31
2022/05/10 08:13:31;;;;;;;;;;;24.90;86.10;;;;;;2622155;46;19934;31
2022/05/10 08:16:10;;;;;;;;;;;25.20;84.90;;;;;;2603837;54;19956;31
2022/05/10 08:18:48;;;;;;;;;;;25.30;84.40;;;;;;2603876;54;19935;31
2022/05/10 08:21:24;;;;;;;;;;;25.40;83.60;;;;;;2604014;54;20653;31
2022/05/10 08:24:02;;;;;;;;;;;25.30;82.00;;;;;;2603536;54;19935;31
2022/05/10 08:26:37;;;;;;;;;;;25.40;83.00;;;;;;2603636;54;20737;31
2022/05/10 08:29:17;;;;;;;;;;;25.60;82.00;;;;;;2602918;54;20013;31
2022/05/10 08:31:55;;;;;;;;;;;25.80;82.30;;;;;;2604095;54;19934;31
2022/05/10 08:34:32;;;;;;;;;;;25.80;81.20;;;;;;2603659;54;20755;31
2022/05/10 08:37:30;;;;;;;;;;;25.70;80.50;;;;;;2702083;39;20416;31
2022/05/10 08:40:08;;;;;;;;;;;25.90;81.00;;;;;;2603447;54;19934;31
2022/05/10 08:42:44;;;;;;;;;;;25.80;79.60;;;;;;2622246;46;19935;31
2022/05/10 08:45:25;;;;;;;;;;;25.90;80.20;;;;;;2622437;46;19989;31
2022/05/10 08:50:31;;;;;;;;;;;25.80;78.30;;;;;;2622366;46;19938;31
2022/05/10 08:53:13;;;;;;;;;;;25.70;78.10;;;;;;2602978;54;19950;31
2022/05/10 08:55:50;;;;;;;;;;;25.60;79.10;;;;;;2602881;54;19942;31
2022/05/10 08:58:40;;;;;;;;;;;25.50;78.80;;;;;;2702302;39;21198;31
2022/05/10 09:01:34;;;;;;;;;;;25.60;79.40;;;;;;2622318;46;19985;31
2022/05/10 09:04:12;;;;;;;;;;;25.80;78.90;;;;;;2622162;46;19942;31
2022/05/10 09:06:50;;;;;;;;;;;25.80;76.80;;;;;;2603850;54;20796;31
2022/05/10 09:09:28;;;;;;;;;;;25.60;78.00;;;;;;2621822;46;20749;31
2022/05/10 09:12:17;;;;;;;;;;;25.50;76.40;;;;;;2603484;54;20025;31
2022/05/10 09:14:56;;;;;;;;;;;25.60;77.00;;;;;;2603836;54;19993;31
2022/05/10 09:17:32;;;;;;;;;;;25.60;76.50;;;;;;2603327;54;20009;31
2022/05/10 09:20:05;;;;;;;;;;;25.50;76.10;;;;;;2702362;39;20923;31
2022/05/10 09:23:16;;;;;;;;;;;25.20;75.60;;;;;;2603502;54;19934;31
2022/05/10 09:25:52;;;;;;;;;;;25.00;74.70;;;;;;2603743;54;19935;31
2022/05/10 09:28:28;;;;;;;;;;;24.90;74.50;;;;;;2621803;46;20035;31
2022/05/10 09:37:19;;;;;;;;;;;25.20;75.30;;;;;;2621899;46;20513;31
2022/05/10 09:40:03;;;;;;;;;;;25.20;77.70;;;;;;2622037;46;19938;31
2022/05/10 09:42:38;;;;;;;;;;;25.10;76.20;;;;;;2603785;54;20020;31
2022/05/10 09:45:16;;;;;;;;;;;25.20;75.80;;;;;;2621944;47;20018;31
2022/05/10 09:47:54;;;;;;;;;;;25.30;75.70;;;;;;2613040;47;19941;31
2022/05/10 09:50:34;;;;;;;;;;;25.30;75.20;;;;;;2603002;54;20022;31
2022/05/10 09:53:11;;;;;;;;;;;25.40;74.20;;;;;;2710392;39;20394;31
2022/05/10 09:55:54;;;;;;;;;;;25.40;74.60;;;;;;2602725;54;20684;31
2022/05/10 09:58:30;;;;;;;;;;;25.50;75.60;;;;;;2602537;54;19934;31
2022/05/10 10:01:05;;;;;;;;;;;25.50;74.80;;;;;;2616705;47;19949;31
2022/05/10 10:03:42;;;;;;;;;;;25.40;73.80;;;;;;2603289;54;20024;31
2022/05/10 10:06:22;;;;;;;;;;;25.40;75.00;;;;;;2602622;54;20498;31
2022/05/10 10:09:01;;;;;;;;;;;25.50;74.70;;;;;;2603305;54;20839;31
2022/05/10 10:11:38;;;;;;;;;;;25.60;74.70;;;;;;2603576;54;19957;31
2022/05/10 10:14:13;;;;;;;;;;;25.60;73.80;;;;;;2603422;54;20746;31
2022/05/10 10:16:49;;;;;;;;;;;25.80;73.70;;;;;;2618465;47;19951;31
2022/05/10 10:19:32;;;;;;;;;;;25.70;73.10;;;;;;2614705;47;20494;31
2022/05/10 10:22:12;;;;;;;;;;;25.50;72.50;;;;;;2603092;54;20658;31
2022/05/10 10:24:49;;;;;;;;;;;25.30;72.90;;;;;;2602670;54;19938;31
2022/05/10 10:30:16;;;;;;;;;;;25.30;73.40;;;;;;2603154;54;20785;31
2022/05/10 10:32:54;;;;;;;;;;;25.40;73.40;;;;;;2603831;54;19989;31
2022/05/10 10:38:07;;;;;;;;;;;25.60;73.10;;;;;;2604288;54;19935;31
2022/05/10 10:40:46;;;;;;;;;;;25.50;73.10;;;;;;2612765;46;19946;31
2022/05/10 10:43:21;;;;;;;;;;;25.60;74.40;;;;;;2603307;54;19934;31
2022/05/10 10:45:59;;;;;;;;;;;25.50;73.90;;;;;;2702375;39;20401;31
2022/05/10 10:48:40;;;;;;;;;;;25.30;73.40;;;;;;2786150;31;20548;31
2022/05/10 10:51:18;;;;;;;;;;;25.00;73.40;;;;;;2604105;54;20841;31
2022/05/10 10:53:52;;;;;;;;;;;25.00;73.60;;;;;;2622458;46;19942;31
2022/05/10 10:56:41;;;;;;;;;;;25.00;75.00;;;;;;2604203;54;20021;31
2022/05/10 10:59:29;;;;;;;;;;;24.90;74.10;;;;;;2604221;54;20745;31
2022/05/10 11:02:12;;;;;;;;;;;24.90;74.70;;;;;;2604296;54;19985;31
2022/05/10 11:05:09;;;;;;;;;;;24.90;73.60;;;;;;2604315;54;20765;31
2022/05/10 11:07:49;;;;;;;;;;;24.60;74.80;;;;;;2604147;54;19934;31
2022/05/10 11:10:24;;;;;;;;;;;24.60;74.50;;;;;;2604086;54;19990;31
2022/05/10 11:13:04;;;;;;;;;;;24.50;74.90;;;;;;2622700;46;19986;31
2022/05/10 11:15:43;;;;;;;;;;;24.40;75.40;;;;;;2622322;46;20002;31
2022/05/10 11:18:32;;;;;;;;;;;24.50;75.70;;;;;;2603966;54;19962;31
2022/05/10 11:21:10;;;;;;;;;;;24.60;76.10;;;;;;2774109;31;20486;31
2022/05/10 11:23:46;;;;;;;;;;;24.60;74.90;;;;;;2603997;54;19961;31
2022/05/10 11:26:27;;;;;;;;;;;24.80;75.30;;;;;;2603222;54;19942;31
2022/05/10 11:29:16;;;;;;;;;;;25.00;75.90;;;;;;2604070;54;19935;31
2022/05/10 11:31:56;;;;;;;;;;;25.10;74.90;;;;;;2604095;54;20806;31
2022/05/10 11:34:36;;;;;;;;;;;25.10;74.30;;;;;;2622280;46;19946;31
2022/05/10 11:37:09;;;;;;;;;;;25.20;74.50;;;;;;2603930;54;19931;31
2022/05/10 11:40:01;;;;;;;;;;;25.30;75.20;;;;;;2622693;46;19942;31
2022/05/10 11:42:39;;;;;;;;;;;25.50;74.10;;;;;;2702480;39;20471;31
2022/05/10 11:45:23;;;;;;;;;;;25.60;73.50;;;;;;2603751;54;19962;31
2022/05/10 11:48:04;;;;;;;;;;;25.70;74.10;;;;;;2603929;54;19942;31
2022/05/10 11:53:49;;;;;;;;;;;25.70;75.10;;;;;;2603504;54;20740;31
2022/05/10 11:56:26;;;;;;;;;;;25.80;75.80;;;;;;2603095;54;20760;31
2022/05/10 11:59:01;;;;;;;;;;;25.80;74.90;;;;;;2603762;54;19957;31
2022/05/10 12:01:44;;;;;;;;;;;25.70;74.00;;;;;;2622313;46;20005;31
2022/05/10 12:04:40;;;;;;;;;;;25.60;76.20;;;;;;2604008;54;19942;31
2022/05/10 12:07:18;;;;;;;;;;;25.50;74.80;;;;;;2603775;54;19935;31
2022/05/10 12:10:00;;;;;;;;;;;25.60;76.60;;;;;;2622195;46;19941;31
2022/05/10 12:12:50;;;;;;;;;;;25.80;75.20;;;;;;2603961;54;19941;31
2022/05/10 12:21:32;;;;;;;;;;;25.80;74.40;;;;;;2603950;54;20466;31
2022/05/10 12:24:11;;;;;;;;;;;25.80;75.00;;;;;;2617405;46;19946;31
2022/05/10 12:26:49;;;;;;;;;;;25.80;75.00;;;;;;2708739;39;21203;31
2022/05/10 12:29:40;;;;;;;;;;;25.80;74.90;;;;;;2603695;54;19934;31
2022/05/10 12:32:39;;;;;;;;;;;25.70;74.40;;;;;;2622237;46;19934;31
2022/05/10 12:35:16;;;;;;;;;;;25.70;77.90;;;;;;2603624;54;20823;31
2022/05/10 12:37:54;;;;;;;;;;;25.80;76.60;;;;;;2603774;54;19935;31
2022/05/10 12:40:51;;;;;;;;;;;25.80;76.00;;;;;;2720827;39;20391;31
2022/05/10 12:43:31;;;;;;;;;;;25.90;76.80;;;;;;2622287;46;19943;31
2022/05/10 12:46:07;;;;;;;;;;;26.00;76.00;;;;;;2603753;54;20754;31
2022/05/10 12:48:52;;;;;;;;;;;26.00;73.70;;;;;;2622110;46;19958;31
2022/05/10 12:51:31;;;;;;;;;;;26.00;74.30;;;;;;2621855;46;19947;31
2022/05/10 12:54:05;;;;;;;;;;;26.00;77.00;;;;;;2622146;46;20810;31
2022/05/10 12:56:47;;;;;;;;;;;25.90;74.70;;;;;;2720872;39;20390;31
2022/05/10 12:59:27;;;;;;;;;;;25.90;74.50;;;;;;2603036;54;20772;31
2022/05/10 13:02:02;;;;;;;;;;;25.90;74.20;;;;;;2622363;46;19942;31
2022/05/10 13:04:40;;;;;;;;;;;25.80;73.60;;;;;;2622476;46;20757;31
2022/05/10 13:07:17;;;;;;;;;;;25.70;74.00;;;;;;2603804;54;20742;31
2022/05/10 13:09:54;;;;;;;;;;;25.60;74.40;;;;;;2720823;39;20457;31
2022/05/10 13:12:34;;;;;;;;;;;25.60;76.30;;;;;;2602960;54;19954;31
2022/05/10 13:15:14;;;;;;;;;;;25.60;75.40;;;;;;2622111;46;19935;31
2022/05/10 13:17:50;;;;;;;;;;;25.60;75.80;;;;;;2603542;54;19935;31
2022/05/10 13:20:27;;;;;;;;;;;25.50;75.50;;;;;;2603343;54;19939;31
2022/05/10 13:23:05;;;;;;;;;;;25.40;76.00;;;;;;2603647;54;19935;31
2022/05/10 13:25:43;;;;;;;;;;;25.30;74.10;;;;;;2603343;54;20792;31
2022/05/10 13:28:19;;;;;;;;;;;25.30;75.00;;;;;;2602933;54;19998;31
2022/05/10 13:30:58;;;;;;;;;;;25.30;77.20;;;;;;2603495;54;19946;31
2022/05/10 13:33:35;;;;;;;;;;;25.40;76.30;;;;;;2720782;39;20473;31
2022/05/10 13:36:11;;;;;;;;;;;25.50;76.00;;;;;;2603529;54;19943;31
2022/05/10 13:38:47;;;;;;;;;;;25.50;75.50;;;;;;2622099;46;20045;31
2022/05/10 13:41:26;;;;;;;;;;;25.50;75.00;;;;;;2622029;46;19935;31
2022/05/10 13:44:02;;;;;;;;;;;25.50;75.00;;;;;;2602625;54;19951;31
2022/05/10 13:46:41;;;;;;;;;;;25.40;75.00;;;;;;2602579;54;20576;31
2022/05/10 13:49:16;;;;;;;;;;;25.40;75.70;;;;;;2622041;47;20794;31
2022/05/10 13:51:54;;;;;;;;;;;25.40;76.60;;;;;;2603613;54;19941;31
2022/05/10 13:54:37;;;;;;;;;;;25.50;75.00;;;;;;2621996;47;19941;31
2022/05/10 13:57:18;;;;;;;;;;;25.40;76.00;;;;;;2603448;54;20804;31
2022/05/10 13:59:53;;;;;;;;;;;25.50;76.70;;;;;;2621861;47;19941;31
2022/05/10 14:02:30;;;;;;;;;;;25.40;76.60;;;;;;2603378;54;19935;31
2022/05/10 14:05:05;;;;;;;;;;;25.40;76.50;;;;;;2720359;39;20465;31
2022/05/10 14:07:42;;;;;;;;;;;25.40;75.80;;;;;;2702507;39;20445;31
2022/05/10 14:10:19;;;;;;;;;;;25.40;77.20;;;;;;2622696;46;19961;31
2022/05/10 14:12:57;;;;;;;;;;;25.50;77.20;;;;;;2604156;54;20810;31
2022/05/10 14:15:33;;;;;;;;;;;25.50;77.90;;;;;;2604354;54;19935;31
2022/05/10 14:18:13;;;;;;;;;;;25.50;77.90;;;;;;2622769;46;19941;31
2022/05/10 14:20:51;;;;;;;;;;;25.50;78.40;;;;;;2773562;31;20536;31
2022/05/10 14:23:26;;;;;;;;;;;25.50;78.30;;;;;;2604392;54;20711;31
2022/05/10 14:26:03;;;;;;;;;;;25.60;78.10;;;;;;2604330;54;19957;31
2022/05/10 14:28:37;;;;;;;;;;;25.60;77.70;;;;;;2604087;54;19942;31
2022/05/10 14:31:13;;;;;;;;;;;25.70;78.60;;;;;;2604340;54;20584;31
2022/05/10 14:33:54;;;;;;;;;;;25.60;77.20;;;;;;2604012;54;20804;31
2022/05/10 14:36:31;;;;;;;;;;;25.60;77.10;;;;;;2622528;46;19957;31
2022/05/10 14:39:07;;;;;;;;;;;25.60;80.70;;;;;;2604040;54;20323;31
2022/05/10 14:41:44;;;;;;;;;;;25.60;78.20;;;;;;2622768;46;19989;31
2022/05/10 14:44:20;;;;;;;;;;;25.60;77.30;;;;;;2604030;54;19941;31
2022/05/10 14:46:55;;;;;;;;;;;25.50;77.10;;;;;;2604298;54;19934;31
2022/05/10 14:49:36;;;;;;;;;;;25.50;78.30;;;;;;2604056;54;20849;31
2022/05/10 14:52:24;;;;;;;;;;;25.50;77.20;;;;;;2603544;54;19942;31
2022/05/10 14:54:59;;;;;;;;;;;25.50;78.50;;;;;;2622616;46;20478;31
2022/05/10 14:57:36;;;;;;;;;;;25.50;79.60;;;;;;2622375;46;19934;31
2022/05/10 15:00:37;;;;;;;;;;;25.40;79.20;;;;;;2622845;46;20570;31
2022/05/10 15:03:12;;;;;;;;;;;25.40;79.80;;;;;;2604131;54;19956;31
2022/05/10 15:05:49;;;;;;;;;;;25.40;79.20;;;;;;2622743;46;19935;31
2022/05/10 15:08:23;;;;;;;;;;;25.30;77.40;;;;;;2622360;46;19942;31
2022/05/10 15:10:58;;;;;;;;;;;25.30;78.60;;;;;;2622342;46;20002;31
2022/05/10 15:13:31;;;;;;;;;;;25.30;78.80;;;;;;2622781;46;20479;31
2022/05/10 15:16:05;;;;;;;;;;;25.30;79.30;;;;;;2603599;54;20013;31
2022/05/10 15:21:32;;;;;;;;;;;25.30;80.20;;;;;;2622419;46;19985;31
2022/05/10 15:24:06;;;;;;;;;;;25.20;79.70;;;;;;2622714;46;20764;31
2022/05/10 15:26:41;;;;;;;;;;;25.20;80.00;;;;;;2603872;54;19935;31
2022/05/10 15:29:14;;;;;;;;;;;25.20;79.10;;;;;;2702688;39;20935;31
2022/05/10 15:31:53;;;;;;;;;;;25.20;80.20;;;;;;2622287;46;19934;31
2022/05/10 15:37:14;;;;;;;;;;;25.10;78.00;;;;;;2603957;54;20754;31
2022/05/10 15:39:49;;;;;;;;;;;25.10;81.00;;;;;;2603895;54;20784;31
2022/05/10 15:42:23;;;;;;;;;;;25.00;79.70;;;;;;2721295;39;20461;31
2022/05/10 15:44:56;;;;;;;;;;;25.00;80.00;;;;;;2603840;54;19953;31
2022/05/10 15:47:30;;;;;;;;;;;25.00;79.80;;;;;;2622377;46;19934;31
2022/05/10 15:50:09;;;;;;;;;;;24.90;79.80;;;;;;2604012;54;20054;31
2022/05/10 15:52:47;;;;;;;;;;;24.90;80.70;;;;;;2603993;54;20803;31
2022/05/10 15:55:21;;;;;;;;;;;24.90;80.90;;;;;;2603804;54;20835;31
2022/05/10 15:57:57;;;;;;;;;;;24.80;79.00;;;;;;2603943;54;19938;31
2022/05/10 16:00:31;;;;;;;;;;;24.70;79.70;;;;;;2603876;54;19989;31
2022/05/10 16:03:06;;;;;;;;;;;24.70;79.40;;;;;;2619619;46;20784;31
2022/05/10 16:05:42;;;;;;;;;;;24.80;79.40;;;;;;2604098;54;19941;31
2022/05/10 16:08:19;;;;;;;;;;;24.70;79.80;;;;;;2702678;39;20362;31
2022/05/10 16:10:54;;;;;;;;;;;24.70;80.30;;;;;;2603718;54;19946;31
2022/05/10 16:13:28;;;;;;;;;;;24.60;79.80;;;;;;2622560;46;20737;31
2022/05/10 16:16:03;;;;;;;;;;;24.60;79.80;;;;;;2603904;54;19934;31